createdAt,value
2022-09-02T00:01:32.242Z,12.00
2022-09-02T00:04:02.804Z,10.70
2022-09-02T00:06:30.627Z,9.90
2022-09-02T00:08:58.946Z,9.50
2022-09-02T00:11:28.780Z,11.90
2022-09-02T00:13:58.952Z,9.70
2022-09-02T00:16:26.033Z,11.20
2022-09-02T00:18:53.568Z,8.30
2022-09-02T00:21:21.548Z,9.00
2022-09-02T00:23:49.277Z,8.50
2022-09-02T00:26:16.623Z,9.80
2022-09-02T00:28:48.933Z,10.60
2022-09-02T00:31:18.095Z,8.70
2022-09-02T00:33:44.891Z,8.40
2022-09-02T00:36:12.457Z,10.60
2022-09-02T00:38:39.815Z,9.70
2022-09-02T00:41:10.045Z,8.90
2022-09-02T00:43:50.409Z,9.80
2022-09-02T00:46:20.010Z,10.30
2022-09-02T00:49:09.252Z,10.10
2022-09-02T00:51:51.755Z,11.10
2022-09-02T00:54:21.009Z,10.30
2022-09-02T00:56:53.830Z,9.90
2022-09-02T00:59:47.380Z,9.10
2022-09-02T01:02:14.291Z,9.70
2022-09-02T01:04:41.472Z,10.60
2022-09-02T01:07:08.123Z,15.00
2022-09-02T01:09:34.685Z,12.60
2022-09-02T01:12:02.106Z,10.50
2022-09-02T01:14:28.972Z,9.80
2022-09-02T01:16:59.648Z,11.00
2022-09-02T01:19:32.426Z,9.90
2022-09-02T01:21:59.446Z,11.80
2022-09-02T01:24:31.514Z,10.30
2022-09-02T01:26:59.281Z,9.60
2022-09-02T01:29:28.469Z,10.00
2022-09-02T01:31:56.098Z,10.90
2022-09-02T01:34:23.407Z,12.20
2022-09-02T01:36:50.884Z,9.10
2022-09-02T01:39:17.798Z,8.10
2022-09-02T01:41:44.903Z,10.10
2022-09-02T01:44:11.717Z,10.10
2022-09-02T01:46:38.657Z,11.80
2022-09-02T01:49:05.701Z,8.40
2022-09-02T01:51:32.388Z,10.00
2022-09-02T01:53:59.210Z,10.00
2022-09-02T01:56:25.963Z,10.20
2022-09-02T01:58:52.909Z,13.40
2022-09-02T02:01:20.051Z,14.20
2022-09-02T02:03:46.854Z,8.70
2022-09-02T02:06:16.660Z,10.10
2022-09-02T02:08:44.317Z,11.00
2022-09-02T02:11:11.368Z,10.00
2022-09-02T02:13:38.500Z,12.20
2022-09-02T02:16:05.343Z,11.40
2022-09-02T02:18:32.294Z,12.10
2022-09-02T02:20:58.822Z,12.10
2022-09-02T02:23:25.683Z,19.80
2022-09-02T02:25:52.676Z,11.40
2022-09-02T02:28:19.270Z,12.80
2022-09-02T02:30:46.231Z,12.60
2022-09-02T02:33:13.073Z,12.20
2022-09-02T02:35:40.402Z,12.80
2022-09-02T02:38:07.377Z,10.00
2022-09-02T02:40:34.794Z,9.40
2022-09-02T02:43:01.714Z,13.20
2022-09-02T02:45:28.554Z,12.50
2022-09-02T02:47:55.270Z,10.10
2022-09-02T02:50:23.314Z,12.40
2022-09-02T02:52:51.050Z,13.20
2022-09-02T02:55:18.105Z,18.30
2022-09-02T02:57:45.733Z,12.90
2022-09-02T03:00:25.485Z,12.60
2022-09-02T03:03:03.847Z,12.30
2022-09-02T03:05:31.255Z,10.30
2022-09-02T03:07:58.066Z,11.60
2022-09-02T03:10:25.259Z,9.70
2022-09-02T03:12:51.999Z,11.30
2022-09-02T03:15:21.234Z,17.00
2022-09-02T03:17:48.749Z,13.00
2022-09-02T03:20:18.212Z,11.70
2022-09-02T03:22:49.301Z,10.90
2022-09-02T03:25:18.937Z,11.60
2022-09-02T03:27:46.292Z,11.30
2022-09-02T03:30:16.861Z,14.30
2022-09-02T03:32:43.875Z,8.70
2022-09-02T03:35:13.992Z,13.50
2022-09-02T03:37:40.829Z,10.70
2022-09-02T03:40:13.019Z,15.60
2022-09-02T03:42:39.690Z,11.30
2022-09-02T03:45:09.502Z,12.90
2022-09-02T03:47:37.369Z,10.90
2022-09-02T03:50:05.025Z,9.90
2022-09-02T03:52:31.607Z,9.40
2022-09-02T03:54:58.321Z,12.00
2022-09-02T03:57:24.938Z,10.40
2022-09-02T03:59:52.194Z,14.50
2022-09-02T04:02:19.182Z,11.00
2022-09-02T04:04:45.919Z,13.30
2022-09-02T04:07:12.480Z,13.90
2022-09-02T04:09:41.480Z,9.30
2022-09-02T04:12:11.341Z,13.30
2022-09-02T04:14:37.984Z,9.80
2022-09-02T04:17:04.625Z,12.40
2022-09-02T04:19:31.115Z,10.60
2022-09-02T04:21:57.844Z,10.20
2022-09-02T04:24:24.549Z,14.10
2022-09-02T04:26:51.087Z,12.70
2022-09-02T04:29:18.907Z,10.40
2022-09-02T04:31:45.964Z,12.00
2022-09-02T04:34:16.265Z,10.30
2022-09-02T04:36:43.001Z,10.10
2022-09-02T04:39:10.447Z,14.60
2022-09-02T04:41:37.793Z,11.90
2022-09-02T04:44:05.779Z,13.80
2022-09-02T04:46:34.110Z,10.90
2022-09-02T04:49:02.393Z,10.90
2022-09-02T04:51:29.392Z,12.80
2022-09-02T04:53:56.339Z,8.70
2022-09-02T04:56:26.844Z,9.80
2022-09-02T04:58:55.665Z,8.40
2022-09-02T05:01:25.554Z,9.30
2022-09-02T05:03:52.531Z,10.10
2022-09-02T05:06:22.144Z,7.30
2022-09-02T05:08:49.336Z,8.10
2022-09-02T05:11:23.027Z,7.90
2022-09-02T05:13:51.114Z,7.70
2022-09-02T05:16:20.422Z,8.50
2022-09-02T05:18:47.959Z,10.00
2022-09-02T05:21:14.825Z,8.80
2022-09-02T05:23:42.366Z,7.80
2022-09-02T05:26:11.071Z,9.70
2022-09-02T05:28:38.108Z,8.80
2022-09-02T05:31:08.125Z,7.80
2022-09-02T05:33:35.594Z,7.30
2022-09-02T05:36:03.126Z,9.50
2022-09-02T05:38:29.689Z,10.60
2022-09-02T05:40:56.401Z,8.90
2022-09-02T05:43:23.376Z,24.60
2022-09-02T05:45:50.215Z,25.20
2022-09-02T05:48:17.009Z,20.70
2022-09-02T05:50:43.528Z,15.90
2022-09-02T05:53:16.835Z,16.30
2022-09-02T05:55:43.371Z,17.50
2022-09-02T05:58:09.977Z,16.90
2022-09-02T06:00:38.159Z,12.10
2022-09-02T06:03:04.774Z,15.30
2022-09-02T06:05:31.441Z,14.20
2022-09-02T06:07:58.108Z,14.60
2022-09-02T06:10:24.623Z,10.50
2022-09-02T06:12:51.135Z,13.80
2022-09-02T06:15:17.811Z,15.70
2022-09-02T06:17:44.412Z,10.30
2022-09-02T06:20:11.843Z,13.70
2022-09-02T06:22:38.600Z,11.20
2022-09-02T06:25:05.809Z,9.60
2022-09-02T06:27:32.464Z,14.70
2022-09-02T06:29:59.017Z,9.40
2022-09-02T06:32:25.746Z,10.10
2022-09-02T06:34:52.251Z,12.00
2022-09-02T06:37:18.926Z,8.20
2022-09-02T06:39:45.502Z,10.40
2022-09-02T06:42:12.314Z,8.40
2022-09-02T06:44:39.368Z,8.60
2022-09-02T06:47:06.066Z,8.80
2022-09-02T06:49:32.786Z,10.60
2022-09-02T06:51:59.394Z,10.50
2022-09-02T06:54:26.371Z,9.90
2022-09-02T06:56:53.839Z,8.80
2022-09-02T06:59:21.824Z,11.70
2022-09-02T07:01:49.415Z,8.20
2022-09-02T07:04:17.423Z,7.10
2022-09-02T07:06:47.340Z,7.80
2022-09-02T07:09:17.354Z,6.50
2022-09-02T07:11:44.726Z,8.40
2022-09-02T07:14:11.376Z,7.30
2022-09-02T07:16:43.986Z,7.60
2022-09-02T07:19:15.035Z,7.80
2022-09-02T07:21:44.680Z,7.40
2022-09-02T07:24:13.871Z,7.20
2022-09-02T07:26:41.057Z,7.70
2022-09-02T07:29:08.705Z,8.40
2022-09-02T07:31:41.324Z,9.70
2022-09-02T07:34:08.175Z,7.30
2022-09-02T07:36:35.920Z,8.10
2022-09-02T07:39:04.977Z,8.60
2022-09-02T07:41:31.653Z,10.50
2022-09-02T07:43:59.802Z,9.40
2022-09-02T07:46:27.104Z,8.00
2022-09-02T07:48:54.070Z,6.80
2022-09-02T07:51:20.998Z,10.40
2022-09-02T07:53:47.551Z,8.60
2022-09-02T07:56:14.392Z,10.00
2022-09-02T07:58:42.667Z,17.20
2022-09-02T08:01:09.890Z,12.70
2022-09-02T08:03:38.941Z,7.50
2022-09-02T08:06:06.989Z,8.50
2022-09-02T08:08:34.174Z,11.10
2022-09-02T08:13:28.457Z,6.00
2022-09-02T08:15:55.238Z,9.20
2022-09-02T08:18:22.823Z,6.20
2022-09-02T08:20:49.721Z,9.00
2022-09-02T08:23:19.635Z,5.00
2022-09-02T08:26:03.097Z,6.00
2022-09-02T08:28:30.080Z,5.00
2022-09-02T08:30:56.609Z,4.20
2022-09-02T08:33:23.532Z,3.30
2022-09-02T08:35:50.399Z,4.50
2022-09-02T08:38:17.281Z,4.30
2022-09-02T08:40:44.744Z,5.20
2022-09-02T08:43:30.589Z,5.70
2022-09-02T08:46:03.857Z,5.30
2022-09-02T08:48:42.733Z,4.50
2022-09-02T08:51:15.611Z,5.50
2022-09-02T08:53:59.156Z,7.30
2022-09-02T08:56:26.501Z,4.60
2022-09-02T08:58:56.547Z,3.40
2022-09-02T09:01:42.444Z,6.00
2022-09-02T09:04:26.346Z,3.90
2022-09-02T09:07:20.456Z,4.80
2022-09-02T09:09:49.757Z,6.00
2022-09-02T09:12:37.289Z,3.90
2022-09-02T09:15:09.054Z,4.70
2022-09-02T09:17:47.829Z,3.60
2022-09-02T09:20:21.655Z,4.10
2022-09-02T09:22:51.327Z,7.60
2022-09-02T09:25:18.381Z,5.10
2022-09-02T09:27:45.879Z,5.30
2022-09-02T09:30:15.464Z,3.20
2022-09-02T09:32:52.742Z,4.60
2022-09-02T09:35:19.507Z,2.90
2022-09-02T09:37:51.375Z,5.40
2022-09-02T09:40:18.067Z,2.90
2022-09-02T09:42:49.688Z,5.30
2022-09-02T09:45:19.532Z,4.70
2022-09-02T09:47:46.697Z,3.30
2022-09-02T09:50:19.173Z,4.20
2022-09-02T09:52:46.431Z,3.90
2022-09-02T09:55:22.832Z,4.10
2022-09-02T09:57:52.514Z,4.10
2022-09-02T10:00:32.103Z,3.70
2022-09-02T10:03:02.364Z,5.30
2022-09-02T10:05:36.295Z,2.20
2022-09-02T10:08:15.142Z,2.80
2022-09-02T10:10:56.822Z,3.50
2022-09-02T10:13:30.121Z,3.40
2022-09-02T10:16:14.753Z,3.80
2022-09-02T10:18:53.566Z,4.30
2022-09-02T10:21:32.325Z,4.10
2022-09-02T10:24:11.851Z,3.10
2022-09-02T10:26:42.753Z,2.40
2022-09-02T10:29:30.764Z,3.90
2022-09-02T10:32:12.595Z,4.10
2022-09-02T10:34:54.053Z,4.20
2022-09-02T10:37:24.179Z,5.60
2022-09-02T10:40:13.269Z,2.30
2022-09-02T10:43:04.578Z,4.50
2022-09-02T10:45:45.281Z,4.40
2022-09-02T10:48:29.397Z,2.70
2022-09-02T10:51:01.472Z,3.30
2022-09-02T10:53:46.498Z,2.90
2022-09-02T10:56:19.299Z,2.80
2022-09-02T10:58:51.875Z,2.40
2022-09-02T11:01:24.222Z,1.90
2022-09-02T11:04:02.601Z,4.20
2022-09-02T11:07:01.961Z,4.30
2022-09-02T11:09:37.457Z,2.40
2022-09-02T11:12:17.219Z,4.90
2022-09-02T11:15:21.532Z,2.40
2022-09-02T11:17:59.281Z,2.00
2022-09-02T11:20:57.940Z,3.70
2022-09-02T11:23:34.794Z,3.40
2022-09-02T11:26:16.993Z,2.10
2022-09-02T11:28:58.722Z,3.90
2022-09-02T11:31:46.870Z,3.70
2022-09-02T11:34:31.947Z,3.80
2022-09-02T11:36:58.728Z,4.60
2022-09-02T11:39:54.093Z,2.10
2022-09-02T11:42:47.613Z,2.20
2022-09-02T11:45:27.239Z,1.80
2022-09-02T11:48:24.917Z,3.80
2022-09-02T11:51:32.492Z,2.60
2022-09-02T11:54:02.731Z,5.00
2022-09-02T11:56:38.753Z,2.60
2022-09-02T11:59:07.440Z,2.90
2022-09-02T12:01:43.855Z,3.30
2022-09-02T12:04:56.104Z,5.60
2022-09-02T12:07:07.310Z,1.40
2022-09-02T12:09:49.547Z,1.90
2022-09-02T12:12:37.998Z,3.10
2022-09-02T12:15:04.539Z,2.90
2022-09-02T12:17:39.477Z,2.80
2022-09-02T12:20:09.804Z,3.50
2022-09-02T12:22:40.817Z,2.40
2022-09-02T12:25:27.021Z,5.00
2022-09-02T12:28:12.245Z,2.70
2022-09-02T12:30:57.953Z,2.80
2022-09-02T12:33:50.979Z,4.50
2022-09-02T12:36:39.121Z,2.90
2022-09-02T12:39:23.789Z,2.90
2022-09-02T12:41:59.027Z,3.50
2022-09-02T12:44:36.740Z,4.30
2022-09-02T12:47:12.700Z,3.30
2022-09-02T12:49:47.837Z,2.40
2022-09-02T12:52:36.438Z,4.40
2022-09-02T12:55:18.194Z,8.30
2022-09-02T12:57:47.832Z,3.20
2022-09-02T13:00:27.041Z,4.20
2022-09-02T13:03:19.526Z,2.90
2022-09-02T13:06:17.673Z,4.10
2022-09-02T13:09:05.813Z,4.00
2022-09-02T13:12:23.661Z,4.40
2022-09-02T13:15:13.094Z,4.90
2022-09-02T13:17:42.520Z,3.70
2022-09-02T13:20:35.201Z,3.60
2022-09-02T13:23:35.214Z,4.00
2022-09-02T13:26:52.165Z,2.60
2022-09-02T13:29:31.934Z,4.40
2022-09-02T13:32:29.700Z,5.10
2022-09-02T13:35:01.129Z,3.60
2022-09-02T13:37:36.672Z,4.10
2022-09-02T13:40:28.678Z,2.50
2022-09-02T13:42:56.689Z,7.90
2022-09-02T13:45:26.580Z,4.20
2022-09-02T13:48:00.010Z,3.30
2022-09-02T13:50:29.875Z,5.50
2022-09-02T13:55:54.633Z,5.60
2022-09-02T13:58:35.145Z,3.00
2022-09-02T14:01:20.974Z,4.30
2022-09-02T14:03:51.047Z,3.40
2022-09-02T14:06:20.832Z,3.60
2022-09-02T14:08:57.718Z,4.60
2022-09-02T14:11:26.220Z,5.00
2022-09-02T14:13:53.989Z,4.80
2022-09-02T14:16:32.623Z,2.60
2022-09-02T14:19:17.117Z,7.20
2022-09-02T14:21:57.389Z,6.70
2022-09-02T14:24:27.394Z,3.00
2022-09-02T14:26:59.416Z,3.30
2022-09-02T14:29:29.739Z,4.70
2022-09-02T14:32:20.905Z,2.20
2022-09-02T14:34:49.034Z,5.30
2022-09-02T14:37:21.640Z,4.20
2022-09-02T14:39:52.960Z,6.00
2022-09-02T14:42:19.941Z,3.70
2022-09-02T14:44:47.304Z,3.20
2022-09-02T14:47:17.089Z,6.20
2022-09-02T14:49:53.591Z,2.30
2022-09-02T14:52:30.375Z,7.20
2022-09-02T14:54:58.263Z,4.00
2022-09-02T14:57:33.581Z,5.20
2022-09-02T15:00:13.955Z,4.90
2022-09-02T15:02:44.523Z,2.40
2022-09-02T15:05:12.942Z,6.00
2022-09-02T15:07:39.818Z,5.70
2022-09-02T15:10:07.456Z,3.40
2022-09-02T15:12:46.925Z,4.90
2022-09-02T15:15:15.365Z,4.80
2022-09-02T15:17:41.909Z,3.80
2022-09-02T15:20:10.321Z,6.30
2022-09-02T15:22:38.300Z,4.10
2022-09-02T15:25:07.072Z,4.30
2022-09-02T15:27:34.549Z,4.30
2022-09-02T15:30:01.307Z,3.50
2022-09-02T15:32:28.171Z,4.50
2022-09-02T15:34:55.185Z,4.00
2022-09-02T15:37:21.930Z,6.10
2022-09-02T15:39:50.903Z,5.30
2022-09-02T15:42:17.669Z,4.50
2022-09-02T15:44:44.817Z,3.90
2022-09-02T15:47:11.316Z,6.70
2022-09-02T15:49:38.237Z,4.60
2022-09-02T15:52:05.091Z,3.70
2022-09-02T15:54:31.699Z,5.30
2022-09-02T15:56:59.469Z,6.30
2022-09-02T15:59:26.423Z,4.40
2022-09-02T16:01:56.053Z,4.70
2022-09-02T16:04:23.165Z,4.10
2022-09-02T16:06:52.168Z,6.00
2022-09-02T16:09:19.943Z,4.00
2022-09-02T16:11:49.065Z,7.50
2022-09-02T16:14:20.714Z,5.30
2022-09-02T16:16:48.319Z,9.60
2022-09-02T16:19:15.518Z,8.80
2022-09-02T16:21:42.159Z,5.40
2022-09-02T16:24:09.242Z,8.40
2022-09-02T16:26:40.486Z,9.20
2022-09-02T16:29:09.538Z,15.00
2022-09-02T16:31:38.835Z,9.70
2022-09-02T16:34:08.574Z,11.60
2022-09-02T16:36:38.601Z,10.00
2022-09-02T16:39:06.530Z,8.90
2022-09-02T16:41:35.874Z,12.30
2022-09-02T16:44:05.652Z,16.60
2022-09-02T16:46:33.967Z,18.10
2022-09-02T16:49:00.887Z,19.30
2022-09-02T16:51:27.630Z,19.00
2022-09-02T16:53:59.800Z,18.00
2022-09-02T16:56:27.606Z,25.00
2022-09-02T16:58:54.961Z,24.10
2022-09-02T17:01:22.760Z,19.20
2022-09-02T17:03:50.185Z,20.50
2022-09-02T17:06:16.829Z,25.20
2022-09-02T17:08:43.471Z,24.60
2022-09-02T17:11:16.252Z,19.90
2022-09-02T17:13:42.729Z,17.80
2022-09-02T17:16:09.346Z,21.60
2022-09-02T17:18:36.243Z,16.20
2022-09-02T17:21:25.695Z,22.30
2022-09-02T17:23:53.267Z,19.00
2022-09-02T17:26:22.708Z,18.20
2022-09-02T17:28:50.012Z,18.20
2022-09-02T17:31:31.272Z,18.50
2022-09-02T17:34:00.673Z,18.40
2022-09-02T17:36:29.878Z,15.40
2022-09-02T17:38:58.381Z,21.70
2022-09-02T17:41:25.823Z,18.10
2022-09-02T17:43:52.982Z,16.50
2022-09-02T17:46:20.385Z,23.30
2022-09-02T17:49:12.868Z,19.40
2022-09-02T17:51:34.066Z,18.40
2022-09-02T17:54:01.390Z,22.40
2022-09-02T17:56:31.081Z,21.30
2022-09-02T17:59:28.749Z,17.90
2022-09-02T18:02:20.893Z,22.40
2022-09-02T18:05:12.735Z,22.20
2022-09-02T18:07:52.579Z,20.90
2022-09-02T18:10:20.447Z,24.30
2022-09-02T18:12:46.941Z,19.30
2022-09-02T18:15:17.810Z,20.50
2022-09-02T18:17:50.643Z,23.90
2022-09-02T18:20:27.227Z,23.10
2022-09-02T18:23:34.861Z,24.40
2022-09-02T18:26:38.507Z,23.70
2022-09-02T18:29:34.034Z,26.80
2022-09-02T18:32:25.463Z,25.50
2022-09-02T18:35:07.566Z,27.80
2022-09-02T18:38:07.895Z,34.90
2022-09-02T18:40:59.818Z,29.20
2022-09-02T18:43:41.636Z,35.90
2022-09-02T18:46:11.829Z,33.10
2022-09-02T18:48:39.526Z,37.00
2022-09-02T18:51:35.026Z,36.20
2022-09-02T18:54:39.886Z,35.00
2022-09-02T18:57:08.883Z,34.60
2022-09-02T18:59:59.393Z,31.70
2022-09-02T19:02:47.737Z,30.50
2022-09-02T19:05:19.114Z,28.90
2022-09-02T19:07:47.033Z,27.70
2022-09-02T19:10:13.810Z,27.20
2022-09-02T19:12:40.989Z,26.30
2022-09-02T19:15:10.773Z,25.90
2022-09-02T19:17:40.495Z,25.40
2022-09-02T19:20:09.142Z,23.70
2022-09-02T19:22:44.531Z,24.40
2022-09-02T19:25:17.708Z,22.30
2022-09-02T19:27:47.317Z,20.50
2022-09-02T19:30:17.752Z,17.50
2022-09-02T19:32:48.038Z,18.20
2022-09-02T19:35:17.917Z,17.90
2022-09-02T19:37:46.503Z,16.70
2022-09-02T19:40:18.706Z,18.80
2022-09-02T19:42:45.193Z,17.90
2022-09-02T19:45:16.176Z,16.90
2022-09-02T19:48:06.405Z,16.70
2022-09-02T19:50:30.642Z,18.20
2022-09-02T19:52:57.502Z,16.60
2022-09-02T19:55:24.454Z,22.60
2022-09-02T19:57:51.082Z,17.10
2022-09-02T20:00:17.828Z,17.00
2022-09-02T20:02:44.386Z,17.40
2022-09-02T20:05:13.156Z,14.70
2022-09-02T20:07:40.228Z,18.40
2022-09-02T20:10:08.049Z,19.60
2022-09-02T20:12:35.843Z,17.50
2022-09-02T20:15:04.355Z,16.80
2022-09-02T20:17:31.227Z,15.70
2022-09-02T20:20:00.269Z,15.80
2022-09-02T20:22:30.842Z,20.30
2022-09-02T20:24:58.573Z,14.20
2022-09-02T20:27:34.633Z,15.10
2022-09-02T20:30:11.112Z,15.70
2022-09-02T20:32:43.511Z,17.80
2022-09-02T20:35:28.806Z,15.60
2022-09-02T20:38:44.352Z,19.10
2022-09-02T20:41:38.228Z,18.30
2022-09-02T20:44:42.346Z,16.10
2022-09-02T20:47:25.356Z,12.30
2022-09-02T20:50:08.741Z,17.60
2022-09-02T20:52:55.394Z,16.40
2022-09-02T20:55:26.347Z,12.70
2022-09-02T20:58:00.307Z,14.70
2022-09-02T21:00:27.183Z,12.50
2022-09-02T21:03:07.018Z,12.80
2022-09-02T21:05:44.067Z,11.20
2022-09-02T21:08:17.573Z,15.00
2022-09-02T21:10:48.254Z,11.60
2022-09-02T21:13:41.063Z,15.20
2022-09-02T21:16:12.944Z,10.10
2022-09-02T21:19:05.380Z,11.90
2022-09-02T21:21:39.810Z,10.00
2022-09-02T21:24:34.195Z,11.90
2022-09-02T21:27:20.507Z,12.50
2022-09-02T21:30:02.533Z,13.80
2022-09-02T21:32:46.761Z,15.00
2022-09-02T21:35:30.738Z,12.30
2022-09-02T21:38:02.394Z,11.50
2022-09-02T21:40:53.821Z,11.00
2022-09-02T21:43:35.279Z,12.90
2022-09-02T21:46:04.478Z,10.90
2022-09-02T21:49:15.884Z,12.90
2022-09-02T21:51:50.196Z,10.70
2022-09-02T21:54:25.862Z,13.80
2022-09-02T21:57:12.943Z,11.60
2022-09-02T22:00:08.943Z,8.30
2022-09-02T22:02:54.386Z,9.90
2022-09-02T22:05:39.340Z,9.70
2022-09-02T22:08:47.143Z,9.70
2022-09-02T22:11:31.239Z,10.80
2022-09-02T22:14:02.328Z,12.70
2022-09-02T22:19:05.997Z,9.70
2022-09-02T22:21:37.992Z,9.90
2022-09-02T22:24:04.839Z,10.30
2022-09-02T22:26:40.052Z,11.50
2022-09-02T22:29:22.868Z,10.00
2022-09-02T22:31:52.932Z,11.70
2022-09-02T22:34:19.736Z,10.20
2022-09-02T22:36:55.391Z,9.50
2022-09-02T22:39:32.718Z,12.00
2022-09-02T22:42:08.171Z,12.40
2022-09-02T22:44:37.681Z,14.50
2022-09-02T22:47:09.507Z,9.80
2022-09-02T22:49:50.281Z,11.00
2022-09-02T22:52:36.516Z,10.30
2022-09-02T22:55:03.636Z,8.30
2022-09-02T22:57:38.503Z,8.90
2022-09-02T23:00:12.289Z,11.00
2022-09-02T23:02:47.422Z,11.10
2022-09-02T23:05:16.680Z,10.50
2022-09-02T23:07:43.289Z,10.60
2022-09-02T23:10:18.607Z,9.70
2022-09-02T23:13:00.817Z,11.50
2022-09-02T23:15:45.299Z,9.70
2022-09-02T23:18:44.377Z,8.50
2022-09-02T23:21:19.423Z,12.00
2022-09-02T23:24:04.194Z,9.20
2022-09-02T23:26:36.049Z,11.10
2022-09-02T23:29:16.874Z,9.30
2022-09-02T23:32:02.200Z,12.20
2022-09-02T23:34:31.806Z,7.10
2022-09-02T23:37:16.379Z,11.50
2022-09-02T23:40:01.797Z,9.90
2022-09-02T23:42:29.017Z,8.40
2022-09-02T23:45:04.052Z,11.70
2022-09-02T23:47:46.914Z,10.00
2022-09-02T23:50:19.249Z,10.50
2022-09-02T23:52:58.797Z,9.60
2022-09-02T23:56:03.133Z,9.40
2022-09-02T23:58:55.170Z,7.90
